createdAt,value
2018-11-05T00:02:11.316Z,75.93
2018-11-05T00:04:40.190Z,84.83
2018-11-05T00:07:09.035Z,76.27
2018-11-05T00:09:37.890Z,85.17
2018-11-05T00:12:07.126Z,92.90
2018-11-05T00:14:36.064Z,84.47
2018-11-05T00:17:04.982Z,89.30
2018-11-05T00:19:33.786Z,88.07
2018-11-05T00:22:02.655Z,90.47
2018-11-05T00:24:31.508Z,83.50
2018-11-05T00:27:00.385Z,95.13
2018-11-05T00:29:29.251Z,91.23
2018-11-05T00:31:58.041Z,92.23
2018-11-05T00:34:26.891Z,97.83
2018-11-05T00:36:55.755Z,93.67
2018-11-05T00:39:24.556Z,90.57
2018-11-05T00:41:53.408Z,101.13
2018-11-05T00:44:22.339Z,103.83
2018-11-05T00:46:51.140Z,97.33
2018-11-05T00:49:19.938Z,97.97
2018-11-05T00:51:48.845Z,93.93
2018-11-05T00:54:17.727Z,101.50
2018-11-05T00:56:46.572Z,90.07
2018-11-05T00:59:15.405Z,92.20
2018-11-05T01:01:44.242Z,99.47
2018-11-05T01:04:13.182Z,105.40
2018-11-05T01:06:42.062Z,106.20
2018-11-05T01:09:10.901Z,102.87
2018-11-05T01:11:39.843Z,94.20
2018-11-05T01:14:09.232Z,95.43
2018-11-05T01:16:38.160Z,93.90
2018-11-05T01:19:07.083Z,101.50
2018-11-05T01:21:36.036Z,110.67
2018-11-05T01:24:05.171Z,108.67
2018-11-05T01:26:34.007Z,105.43
2018-11-05T01:29:02.845Z,111.73
2018-11-05T01:31:31.736Z,107.60
2018-11-05T01:34:00.529Z,115.97
2018-11-05T01:36:29.363Z,116.03
2018-11-05T01:38:58.231Z,100.53
2018-11-05T01:41:27.040Z,104.07
2018-11-05T01:43:55.882Z,116.20
2018-11-05T01:46:24.679Z,114.53
2018-11-05T01:48:53.538Z,106.70
2018-11-05T01:51:22.357Z,111.47
2018-11-05T01:53:51.243Z,112.07
2018-11-05T01:56:20.104Z,114.40
2018-11-05T01:58:48.961Z,109.53
2018-11-05T02:01:17.786Z,102.70
2018-11-05T02:03:46.594Z,116.60
2018-11-05T02:06:15.455Z,121.30
2018-11-05T02:08:44.244Z,128.57
2018-11-05T02:11:13.103Z,118.83
2018-11-05T02:13:41.951Z,113.50
2018-11-05T02:16:10.962Z,121.17
2018-11-05T02:18:39.682Z,111.70
2018-11-05T02:21:08.549Z,123.50
2018-11-05T02:23:37.352Z,120.90
2018-11-05T02:26:06.414Z,123.23
2018-11-05T02:28:35.205Z,120.43
2018-11-05T02:31:04.091Z,130.73
2018-11-05T02:33:32.908Z,110.50
2018-11-05T02:36:01.708Z,121.23
2018-11-05T02:38:30.553Z,120.83
2018-11-05T02:40:59.430Z,110.30
2018-11-05T02:43:28.302Z,117.77
2018-11-05T02:45:57.248Z,125.13
2018-11-05T02:48:26.097Z,117.27
2018-11-05T02:50:54.922Z,113.07
2018-11-05T02:53:23.786Z,119.70
2018-11-05T02:55:52.646Z,126.60
2018-11-05T02:58:21.493Z,109.03
2018-11-05T03:00:50.322Z,114.93
2018-11-05T03:03:19.294Z,123.30
2018-11-05T03:05:48.025Z,127.40
2018-11-05T03:08:16.899Z,111.53
2018-11-05T03:10:45.713Z,126.07
2018-11-05T03:13:14.631Z,124.50
2018-11-05T03:15:43.431Z,110.90
2018-11-05T03:18:12.219Z,115.70
2018-11-05T03:20:41.068Z,126.90
2018-11-05T03:23:09.862Z,113.70
2018-11-05T03:25:38.693Z,120.37
2018-11-05T03:28:07.517Z,127.30
2018-11-05T03:30:36.388Z,123.13
2018-11-05T03:33:05.735Z,109.47
2018-11-05T03:35:34.651Z,113.83
2018-11-05T03:38:03.458Z,117.93
2018-11-05T03:40:32.386Z,120.67
2018-11-05T03:43:01.229Z,119.00
2018-11-05T03:45:30.019Z,117.60
2018-11-05T03:47:58.904Z,111.60
2018-11-05T03:50:27.737Z,113.23
2018-11-05T03:52:56.640Z,110.60
2018-11-05T03:55:25.510Z,121.37
2018-11-05T03:57:54.388Z,112.00
2018-11-05T04:00:23.321Z,122.07
2018-11-05T04:02:52.145Z,102.43
2018-11-05T04:05:21.040Z,120.40
2018-11-05T04:07:49.864Z,113.40
2018-11-05T04:10:18.757Z,115.70
2018-11-05T04:12:47.576Z,107.27
2018-11-05T04:15:16.563Z,112.13
2018-11-05T04:17:45.449Z,107.03
2018-11-05T04:20:15.058Z,108.63
2018-11-05T04:22:44.701Z,112.17
2018-11-05T04:25:13.579Z,101.57
2018-11-05T04:27:42.529Z,107.80
2018-11-05T04:30:13.461Z,115.27
2018-11-05T04:32:42.552Z,107.77
2018-11-05T04:35:11.749Z,107.20
2018-11-05T04:37:40.665Z,123.07
2018-11-05T04:40:10.506Z,110.90
2018-11-05T04:42:39.458Z,106.43
2018-11-05T04:45:10.233Z,100.00
2018-11-05T04:47:39.140Z,108.80
2018-11-05T04:50:09.447Z,115.87
2018-11-05T04:52:39.031Z,112.67
2018-11-05T04:55:07.932Z,111.43
2018-11-05T04:57:36.848Z,100.80
2018-11-05T05:00:10.059Z,104.77
2018-11-05T05:02:39.681Z,102.30
2018-11-05T05:05:08.935Z,101.13
2018-11-05T05:07:37.714Z,103.70
2018-11-05T05:10:07.340Z,98.10
2018-11-05T05:12:36.221Z,98.57
2018-11-05T05:15:05.477Z,110.53
2018-11-05T05:17:34.345Z,110.17
2018-11-05T05:20:03.218Z,106.47
2018-11-05T05:22:32.109Z,99.57
2018-11-05T05:25:01.350Z,93.90
2018-11-05T05:27:30.221Z,97.20
2018-11-05T05:29:59.166Z,103.87
2018-11-05T05:32:28.345Z,102.83
2018-11-05T05:34:57.216Z,96.87
2018-11-05T05:37:26.171Z,92.67
2018-11-05T05:39:54.991Z,93.60
2018-11-05T05:42:23.841Z,104.37
2018-11-05T05:44:52.631Z,93.40
2018-11-05T05:47:21.423Z,103.20
2018-11-05T05:49:50.255Z,98.20
2018-11-05T05:52:19.069Z,98.33
2018-11-05T05:54:47.922Z,99.33
2018-11-05T05:57:16.829Z,93.30
2018-11-05T05:59:45.749Z,91.90
2018-11-05T06:02:14.556Z,97.27
2018-11-05T06:04:43.385Z,98.00
2018-11-05T06:07:12.219Z,90.80
2018-11-05T06:09:41.126Z,96.10
2018-11-05T06:12:09.915Z,84.67
2018-11-05T06:14:38.729Z,89.33
2018-11-05T06:17:07.541Z,88.63
2018-11-05T06:19:36.387Z,86.57
2018-11-05T06:22:05.776Z,88.63
2018-11-05T06:24:34.614Z,89.37
2018-11-05T06:27:03.462Z,86.83
2018-11-05T06:29:32.321Z,90.77
2018-11-05T06:32:01.139Z,86.27
2018-11-05T06:34:30.023Z,90.97
2018-11-05T06:36:58.822Z,88.80
2018-11-05T06:39:27.616Z,95.77
2018-11-05T06:41:56.523Z,88.47
2018-11-05T06:44:25.334Z,85.13
2018-11-05T06:46:54.190Z,85.03
2018-11-05T06:49:23.016Z,90.43
2018-11-05T06:51:51.862Z,83.27
2018-11-05T06:54:20.655Z,82.00
2018-11-05T06:56:49.547Z,84.37
2018-11-05T06:59:18.340Z,81.10
2018-11-05T07:01:47.371Z,82.30
2018-11-05T07:04:16.207Z,82.27
2018-11-05T07:06:45.029Z,85.47
2018-11-05T07:09:14.399Z,79.30
2018-11-05T07:11:43.234Z,79.27
2018-11-05T07:14:12.116Z,76.33
2018-11-05T07:16:40.991Z,80.30
2018-11-05T07:19:10.162Z,95.57
2018-11-05T07:21:38.750Z,82.07
2018-11-05T07:24:07.651Z,90.40
2018-11-05T07:26:36.662Z,84.13
2018-11-05T07:29:05.575Z,85.27
2018-11-05T07:31:34.446Z,80.27
2018-11-05T07:34:03.491Z,73.33
2018-11-05T07:36:32.203Z,84.60
2018-11-05T07:39:01.088Z,81.83
2018-11-05T07:41:29.893Z,82.30
2018-11-05T07:43:58.674Z,91.43
2018-11-05T07:46:27.623Z,77.43
2018-11-05T07:48:56.454Z,84.30
2018-11-05T07:51:25.323Z,81.73
2018-11-05T07:53:54.215Z,74.40
2018-11-05T07:56:23.242Z,79.17
2018-11-05T07:58:52.046Z,74.23
2018-11-05T08:01:20.923Z,80.43
2018-11-05T08:03:49.880Z,79.90
2018-11-05T08:06:18.735Z,80.93
2018-11-05T08:08:47.569Z,78.87
2018-11-05T08:11:16.387Z,72.30
2018-11-05T08:13:45.256Z,75.20
2018-11-05T08:16:14.177Z,79.07
2018-11-05T08:18:43.028Z,73.43
2018-11-05T08:21:11.854Z,74.10
2018-11-05T08:23:40.720Z,74.97
2018-11-05T08:26:10.421Z,65.47
2018-11-05T08:28:39.279Z,74.73
2018-11-05T08:31:08.086Z,71.80
2018-11-05T08:33:36.923Z,71.37
2018-11-05T08:36:05.988Z,73.60
2018-11-05T08:38:34.892Z,68.00
2018-11-05T08:41:03.768Z,73.93
2018-11-05T08:43:32.560Z,74.10
2018-11-05T08:46:07.152Z,69.17
2018-11-05T08:48:52.137Z,73.33
2018-11-05T08:51:34.391Z,63.53
2018-11-05T08:54:13.971Z,66.47
2018-11-05T08:56:43.136Z,68.07
2018-11-05T08:59:12.054Z,67.73
2018-11-05T09:01:41.075Z,62.13
2018-11-05T09:04:10.065Z,67.03
2018-11-05T09:06:40.583Z,62.83
2018-11-05T09:09:11.081Z,65.27
2018-11-05T09:11:41.374Z,64.63
2018-11-05T09:14:12.214Z,69.20
2018-11-05T09:16:42.593Z,63.50
2018-11-05T09:19:12.665Z,59.77
2018-11-05T09:21:44.831Z,68.57
2018-11-05T09:24:15.263Z,64.20
2018-11-05T09:26:53.357Z,71.90
2018-11-05T09:29:23.060Z,66.90
2018-11-05T09:31:54.675Z,65.33
2018-11-05T09:34:25.294Z,62.07
2018-11-05T09:36:57.573Z,61.23
2018-11-05T09:39:27.276Z,65.47
2018-11-05T09:41:56.925Z,67.43
2018-11-05T09:44:25.860Z,63.83
2018-11-05T09:46:54.769Z,65.90
2018-11-05T09:49:23.568Z,65.07
2018-11-05T09:51:58.171Z,67.97
2018-11-05T09:54:28.444Z,61.73
2018-11-05T09:56:58.753Z,65.30
2018-11-05T09:59:29.696Z,72.80
2018-11-05T10:01:59.762Z,68.47
2018-11-05T10:04:28.731Z,67.80
2018-11-05T10:06:57.769Z,60.83
2018-11-05T10:09:35.733Z,67.40
2018-11-05T10:12:06.878Z,61.47
2018-11-05T10:14:36.718Z,66.90
2018-11-05T10:17:07.062Z,61.43
2018-11-05T10:19:35.967Z,56.63
2018-11-05T10:22:04.862Z,59.90
2018-11-05T10:25:15.746Z,58.53
2018-11-05T10:27:46.994Z,55.23
2018-11-05T10:30:18.805Z,59.00
2018-11-05T10:32:49.531Z,63.20
2018-11-05T10:35:20.272Z,58.63
2018-11-05T10:37:50.402Z,62.13
2018-11-05T10:40:20.807Z,60.47
2018-11-05T10:42:50.574Z,59.53
2018-11-05T10:45:20.419Z,64.33
2018-11-05T10:47:50.211Z,56.97
2018-11-05T10:50:22.252Z,55.20
2018-11-05T10:52:52.988Z,58.83
2018-11-05T10:55:23.310Z,59.17
2018-11-05T10:57:53.498Z,61.63
2018-11-05T11:00:29.075Z,59.50
2018-11-05T11:04:01.417Z,55.83
2018-11-05T11:06:31.416Z,57.43
2018-11-05T11:09:01.335Z,56.77
2018-11-05T11:11:31.566Z,62.33
2018-11-05T11:14:01.527Z,60.33
2018-11-05T11:16:31.417Z,57.33
2018-11-05T11:19:21.511Z,59.53
2018-11-05T11:22:13.293Z,61.07
2018-11-05T11:25:14.449Z,57.77
2018-11-05T11:27:43.864Z,59.90
2018-11-05T11:30:25.735Z,56.47
2018-11-05T11:32:57.920Z,52.70
2018-11-05T11:35:27.992Z,55.67
2018-11-05T11:37:57.280Z,50.13
2018-11-05T11:40:27.269Z,53.93
2018-11-05T11:42:57.526Z,50.67
2018-11-05T11:45:28.063Z,53.33
2018-11-05T11:47:58.566Z,51.80
2018-11-05T11:50:28.350Z,51.73
2018-11-05T11:52:58.380Z,45.63
2018-11-05T11:55:28.709Z,48.40
2018-11-05T11:57:58.905Z,51.60
2018-11-05T12:00:28.976Z,50.20
2018-11-05T12:02:59.051Z,49.50
2018-11-05T12:05:28.904Z,50.47
2018-11-05T12:07:59.237Z,46.33
2018-11-05T12:10:29.750Z,45.97
2018-11-05T12:12:59.615Z,44.30
2018-11-05T12:15:29.749Z,51.43
2018-11-05T12:18:04.061Z,48.80
2018-11-05T12:20:34.642Z,48.97
2018-11-05T12:23:06.589Z,50.23
2018-11-05T12:25:37.140Z,45.03
2018-11-05T12:28:06.513Z,47.37
2018-11-05T12:30:36.536Z,47.93
2018-11-05T12:33:07.342Z,46.23
2018-11-05T12:35:37.962Z,46.60
2018-11-05T12:38:08.918Z,49.50
2018-11-05T12:40:38.694Z,46.47
2018-11-05T12:43:09.064Z,45.90
2018-11-05T12:45:39.211Z,49.30
2018-11-05T12:48:08.600Z,45.50
2018-11-05T12:50:39.728Z,46.60
2018-11-05T12:53:10.479Z,48.67
2018-11-05T12:55:41.027Z,41.60
2018-11-05T12:58:11.129Z,47.53
2018-11-05T13:00:41.516Z,50.27
2018-11-05T13:03:22.509Z,45.20
2018-11-05T13:06:02.311Z,39.63
2018-11-05T13:08:31.516Z,44.53
2018-11-05T13:11:20.015Z,47.40
2018-11-05T13:14:06.889Z,45.90
2018-11-05T13:16:58.562Z,45.50
2018-11-05T13:19:50.194Z,44.83
2018-11-05T13:22:50.842Z,48.73
2018-11-05T13:29:50.687Z,37.77
2018-11-05T13:32:28.915Z,40.67
2018-11-05T13:35:21.394Z,46.47
2018-11-05T13:37:54.560Z,43.53
2018-11-05T13:40:24.569Z,44.67
2018-11-05T13:42:55.282Z,41.93
2018-11-05T13:45:25.620Z,43.97
2018-11-05T13:47:56.720Z,40.17
2018-11-05T13:50:42.701Z,44.33
2018-11-05T13:53:14.612Z,42.37
2018-11-05T13:55:45.207Z,48.80
2018-11-05T13:58:14.887Z,47.43
2018-11-05T14:00:45.395Z,48.93
2018-11-05T14:03:15.845Z,45.63
2018-11-05T14:05:46.381Z,52.03
2018-11-05T14:08:16.792Z,45.93
2018-11-05T14:10:46.366Z,47.60
2018-11-05T14:13:16.982Z,46.80
2018-11-05T14:15:47.343Z,45.30
2018-11-05T14:18:17.980Z,49.27
2018-11-05T14:20:47.939Z,48.33
2018-11-05T14:23:18.696Z,50.03
2018-11-05T14:25:49.000Z,49.53
2018-11-05T14:28:20.021Z,45.93
2018-11-05T14:31:01.015Z,47.63
2018-11-05T14:33:31.686Z,53.30
2018-11-05T14:36:02.007Z,53.77
2018-11-05T14:38:34.393Z,43.43
2018-11-05T14:41:04.629Z,51.37
2018-11-05T14:43:34.898Z,46.37
2018-11-05T14:46:05.212Z,51.43
2018-11-05T14:48:35.801Z,47.47
2018-11-05T14:51:05.976Z,50.83
2018-11-05T14:53:36.279Z,48.40
2018-11-05T14:56:06.918Z,48.20
2018-11-05T14:58:38.561Z,44.70
2018-11-05T15:01:08.317Z,50.43
2018-11-05T15:03:38.343Z,46.33
2018-11-05T15:06:07.446Z,58.13
2018-11-05T15:08:37.811Z,52.13
2018-11-05T15:11:08.503Z,53.37
2018-11-05T15:13:44.138Z,48.77
2018-11-05T15:16:30.467Z,48.43
2018-11-05T15:19:01.802Z,51.77
2018-11-05T15:21:32.946Z,45.37
2018-11-05T15:24:03.408Z,50.47
2018-11-05T15:26:33.760Z,52.87
2018-11-05T15:29:04.318Z,52.23
2018-11-05T15:31:35.537Z,55.23
2018-11-05T15:34:08.081Z,48.80
2018-11-05T15:36:51.743Z,48.70
2018-11-05T15:39:37.173Z,55.97
2018-11-05T15:42:11.579Z,56.63
2018-11-05T15:44:40.662Z,49.77
2018-11-05T15:47:11.557Z,52.63
2018-11-05T15:49:42.500Z,53.30
2018-11-05T15:52:13.557Z,50.47
2018-11-05T15:54:44.051Z,55.70
2018-11-05T15:57:15.998Z,60.50
2018-11-05T15:59:46.516Z,54.83
2018-11-05T16:02:17.634Z,57.73
2018-11-05T16:04:48.372Z,48.83
2018-11-05T16:07:18.682Z,49.83
2018-11-05T16:09:52.067Z,55.00
2018-11-05T16:12:25.849Z,53.60
2018-11-05T16:14:57.744Z,57.43
2018-11-05T16:17:28.385Z,52.90
2018-11-05T16:19:59.345Z,56.03
2018-11-05T16:22:28.948Z,57.23
2018-11-05T16:24:59.829Z,55.40
2018-11-05T16:27:28.749Z,50.60
2018-11-05T16:29:57.649Z,50.10
2018-11-05T16:32:26.695Z,55.03
2018-11-05T16:34:57.563Z,56.40
2018-11-05T16:37:27.080Z,53.13
2018-11-05T16:39:56.195Z,50.13
2018-11-05T16:42:26.277Z,50.30
2018-11-05T16:44:56.712Z,51.53
2018-11-05T16:47:27.696Z,48.63
2018-11-05T16:49:57.126Z,52.70
2018-11-05T16:52:31.046Z,51.00
2018-11-05T16:55:02.019Z,51.20
2018-11-05T16:57:54.649Z,51.37
2018-11-05T17:00:26.020Z,51.07
2018-11-05T17:03:17.096Z,57.90
2018-11-05T17:06:14.385Z,53.93
2018-11-05T17:09:02.003Z,49.33
2018-11-05T17:11:57.532Z,52.00
2018-11-05T17:14:47.079Z,54.00
2018-11-05T17:17:18.108Z,54.77
2018-11-05T17:19:47.505Z,57.50
2018-11-05T17:22:16.727Z,57.37
2018-11-05T17:24:46.176Z,57.30
2018-11-05T17:27:16.049Z,62.13
2018-11-05T17:29:45.104Z,52.73
2018-11-05T17:32:18.232Z,55.93
2018-11-05T17:34:48.283Z,58.33
2018-11-05T17:37:17.779Z,57.13
2018-11-05T17:39:47.397Z,55.23
2018-11-05T17:42:16.401Z,53.33
2018-11-05T17:44:46.875Z,52.73
2018-11-05T17:47:15.946Z,50.13
2018-11-05T17:49:45.130Z,54.47
2018-11-05T17:52:14.588Z,53.40
2018-11-05T17:54:43.572Z,52.37
2018-11-05T17:57:26.138Z,50.43
2018-11-05T17:59:56.213Z,49.60
2018-11-05T18:02:27.131Z,48.30
2018-11-05T18:04:57.038Z,50.20
2018-11-05T18:07:27.427Z,49.97
2018-11-05T18:09:56.818Z,46.10
2018-11-05T18:12:25.877Z,53.80
2018-11-05T18:14:55.434Z,50.97
2018-11-05T18:17:24.428Z,48.23
2018-11-05T18:19:53.421Z,59.57
2018-11-05T18:22:22.653Z,53.43
2018-11-05T18:24:53.509Z,52.73
2018-11-05T18:27:23.091Z,54.43
2018-11-05T18:29:52.292Z,54.50
2018-11-05T18:32:22.841Z,52.93
2018-11-05T18:34:52.700Z,59.97
2018-11-05T18:37:21.825Z,50.03
2018-11-05T18:39:51.084Z,53.60
2018-11-05T18:42:21.303Z,56.53
2018-11-05T18:44:50.651Z,59.73
2018-11-05T18:47:20.170Z,48.97
2018-11-05T18:49:49.523Z,61.43
2018-11-05T18:52:19.271Z,57.23
2018-11-05T18:54:49.377Z,59.60
2018-11-05T18:57:19.836Z,63.37
2018-11-05T18:59:51.955Z,59.10
2018-11-05T19:02:26.153Z,61.03
2018-11-05T19:04:55.052Z,56.77
2018-11-05T19:07:23.879Z,52.17
2018-11-05T19:09:52.985Z,51.93
2018-11-05T19:12:21.913Z,58.87
2018-11-05T19:14:50.814Z,58.80
2018-11-05T19:17:20.339Z,50.27
2018-11-05T19:19:49.171Z,52.77
2018-11-05T19:22:18.104Z,50.87
2018-11-05T19:24:46.944Z,49.83
2018-11-05T19:27:16.126Z,50.60
2018-11-05T19:29:44.934Z,54.10
2018-11-05T19:32:13.820Z,49.23
2018-11-05T19:34:43.116Z,54.17
2018-11-05T19:37:12.016Z,57.80
2018-11-05T19:39:41.768Z,54.20
2018-11-05T19:42:10.677Z,61.63
2018-11-05T19:44:39.516Z,55.67
2018-11-05T19:47:08.362Z,49.40
2018-11-05T19:49:37.377Z,52.63
2018-11-05T19:52:06.237Z,60.07
2018-11-05T19:54:35.176Z,66.13
2018-11-05T19:57:04.146Z,57.50
2018-11-05T19:59:33.050Z,71.37
2018-11-05T20:02:01.874Z,62.73
2018-11-05T20:04:30.940Z,56.93
2018-11-05T20:06:59.809Z,53.23
2018-11-05T20:09:28.697Z,52.97
2018-11-05T20:11:57.574Z,53.90
2018-11-05T20:14:26.471Z,64.10
2018-11-05T20:16:55.459Z,65.67
2018-11-05T20:19:24.259Z,70.70
2018-11-05T20:21:53.208Z,58.00
2018-11-05T20:24:22.158Z,63.43
2018-11-05T20:26:51.090Z,56.37
2018-11-05T20:29:20.258Z,53.83
2018-11-05T20:31:49.449Z,50.03
2018-11-05T20:34:18.471Z,55.40
2018-11-05T20:36:47.232Z,54.83
2018-11-05T20:39:16.167Z,51.43
2018-11-05T20:41:44.973Z,48.37
2018-11-05T20:44:13.822Z,48.73
2018-11-05T20:46:42.733Z,48.23
2018-11-05T20:49:11.572Z,45.73
2018-11-05T20:51:40.436Z,50.47
2018-11-05T20:54:09.372Z,48.70
2018-11-05T20:56:38.352Z,45.50
2018-11-05T20:59:07.284Z,48.13
2018-11-05T21:01:36.162Z,52.73
2018-11-05T21:04:05.055Z,52.67
2018-11-05T21:06:33.933Z,51.20
2018-11-05T21:09:02.786Z,51.53
2018-11-05T21:11:31.615Z,49.07
2018-11-05T21:14:00.464Z,60.60
2018-11-05T21:16:29.357Z,51.83
2018-11-05T21:18:58.225Z,51.87
2018-11-05T21:21:27.091Z,51.00
2018-11-05T21:23:55.972Z,46.53
2018-11-05T21:26:24.818Z,48.53
2018-11-05T21:28:53.708Z,48.60
2018-11-05T21:31:22.559Z,54.97
2018-11-05T21:33:51.399Z,55.10
2018-11-05T21:36:20.283Z,47.77
2018-11-05T21:38:49.098Z,52.60
2018-11-05T21:41:17.969Z,54.67
2018-11-05T21:43:46.839Z,52.33
2018-11-05T21:46:15.656Z,53.93
2018-11-05T21:48:44.546Z,57.00
2018-11-05T21:51:13.383Z,54.80
2018-11-05T21:53:42.275Z,58.67
2018-11-05T21:56:11.142Z,50.73
2018-11-05T21:58:40.031Z,52.80
2018-11-05T22:01:08.838Z,46.80
2018-11-05T22:03:37.704Z,48.03
2018-11-05T22:06:06.536Z,42.33
2018-11-05T22:08:35.441Z,43.47
2018-11-05T22:11:04.318Z,41.53
2018-11-05T22:13:33.192Z,42.80
2018-11-05T22:16:02.095Z,47.23
2018-11-05T22:18:30.958Z,40.90
2018-11-05T22:20:59.743Z,44.33
2018-11-05T22:23:28.561Z,41.97
2018-11-05T22:25:57.402Z,40.43
2018-11-05T22:28:26.196Z,45.50
2018-11-05T22:30:55.089Z,40.90
2018-11-05T22:33:23.964Z,45.20
2018-11-05T22:35:52.816Z,45.07
2018-11-05T22:38:21.668Z,39.90
2018-11-05T22:40:50.585Z,41.30
2018-11-05T22:43:20.054Z,41.70
2018-11-05T22:45:48.927Z,41.47
2018-11-05T22:48:17.751Z,37.43
2018-11-05T22:50:46.631Z,37.67
2018-11-05T22:53:15.673Z,41.33
2018-11-05T22:55:44.580Z,44.03
2018-11-05T22:58:13.417Z,41.70
2018-11-05T23:00:47.490Z,40.13
2018-11-05T23:03:21.762Z,35.50
2018-11-05T23:05:50.623Z,42.63
2018-11-05T23:08:19.556Z,40.67
2018-11-05T23:10:48.362Z,35.13
2018-11-05T23:13:17.198Z,38.17
2018-11-05T23:15:46.178Z,36.20
2018-11-05T23:18:15.175Z,37.17
2018-11-05T23:20:43.968Z,40.83
2018-11-05T23:23:12.902Z,37.93
2018-11-05T23:25:41.775Z,33.23
2018-11-05T23:28:10.651Z,35.83
2018-11-05T23:30:39.483Z,37.60
2018-11-05T23:33:08.382Z,34.07
2018-11-05T23:35:37.200Z,31.63
2018-11-05T23:38:06.738Z,30.93
2018-11-05T23:40:35.630Z,38.67
2018-11-05T23:43:04.464Z,31.60
2018-11-05T23:45:33.339Z,35.03
2018-11-05T23:48:02.223Z,31.10
2018-11-05T23:50:31.102Z,34.10
2018-11-05T23:52:59.968Z,31.10
2018-11-05T23:55:28.929Z,32.40
2018-11-05T23:57:57.742Z,34.37
